Date,TemperatureHighF,TemperatureAvgF,TemperatureLowF,DewpointHighF,DewpointAvgF,DewpointLowF,HumidityHigh,HumidityAvg,HumidityLow,PressureMaxIn,PressureMinIn,WindSpeedMaxMPH,WindSpeedAvgMPH,GustSpeedMaxMPH,PrecipitationSumIn
2013-1-1,49.5,44.9,39.4,37.5,31.5,23.6,71,60,43,30.07,29.93,4,1,10,0.00
2013-1-2,41.5,37.4,32.9,32.6,30.2,22.1,82,75,64,30.28,30.03,2,0,5,0.00
2013-1-3,40.9,33.2,26.7,24.2,21.5,18.1,86,63,46,30.31,30.20,4,1,9,0.00
2013-1-4,46.9,35.2,24.9,23.5,21.6,20.0,85,60,38,30.30,30.18,4,2,9,0.00
2013-1-5,50.3,38.7,26.9,32.0,22.1,19.0,78,53,29,30.43,30.23,3,1,8,0.01
2013-1-6,50.7,41.7,30.5,34.2,30.6,28.2,92,66,43,30.24,30.09,6,1,13,0.01
2013-1-7,48.5,40.6,28.1,32.4,28.5,25.0,89,63,46,30.49,30.20,5,1,9,0.00
2013-1-8,53.1,35.9,23.8,35.9,29.3,21.8,95,79,52,30.50,30.40,5,1,10,0.00
2013-1-9,59.8,44.3,27.5,49.1,38.4,26.2,96,81,64,30.46,30.32,4,1,12,0.01
2013-1-10,60.4,47.6,33.1,39.5,30.3,26.7,81,53,31,30.62,30.45,3,1,7,0.00
2013-1-11,43.1,41.3,35.9,42.0,36.9,30.3,97,85,67,30.52,30.15,3,1,6,0.04
2013-1-12,57.0,45.4,39.9,50.1,43.7,39.4,99,94,77,30.23,30.15,2,0,6,0.00
2013-1-13,64.6,53.3,45.1,60.3,52.2,44.3,100,96,86,30.18,30.02,3,1,7,0.02
2013-1-14,62.1,55.2,41.5,60.9,52.2,40.2,99,90,76,30.33,30.01,4,2,13,0.13
2013-1-15,41.2,38.4,37.0,40.1,37.4,36.2,97,96,95,30.38,30.19,2,1,6,0.91
2013-1-16,43.2,39.0,35.7,42.0,38.2,34.9,98,97,95,30.20,29.93,5,1,11,0.36
2013-1-17,43.6,39.2,33.7,43.3,38.7,32.9,99,98,93,30.18,30.01,2,1,5,0.35
2013-1-18,44.6,35.3,28.2,34.0,24.8,14.5,98,69,31,30.55,30.17,7,2,12,0.11
2013-1-19,52.3,39.0,26.8,33.7,29.1,24.4,92,69,46,30.51,30.08,7,2,16,0.01
2013-1-20,60.4,46.6,36.0,34.0,24.8,8.4,77,46,23,30.12,29.92,6,3,21,0.00
2013-1-21,53.7,40.0,29.3,23.2,16.1,5.8,69,40,22,30.13,29.83,6,2,20,0.00
2013-1-22,32.5,24.3,17.6,9.6,-0.3,-6.4,59,34,21,30.35,30.00,8,3,19,0.00
2013-1-23,31.3,19.0,9.1,17.5,5.3,0.3,83,59,26,30.43,30.19,3,1,10,0.00
2013-1-24,28.1,21.2,12.8,18.2,10.2,1.0,92,66,33,30.61,30.14,10,2,20,0.03
2013-1-25,23.9,18.2,10.5,19.0,12.4,5.3,88,79,52,30.61,30.14,6,2,13,0.00
2013-1-26,36.9,27.7,20.8,25.9,21.8,18.1,90,79,60,30.51,30.15,3,0,7,0.00
2013-1-27,38.4,28.4,19.0,25.2,22.3,17.3,94,79,55,30.67,30.51,4,1,10,0.00
2013-1-28,47.7,38.8,31.5,42.7,35.1,25.0,96,87,75,30.54,30.14,6,2,14,0.20
2013-1-29,45.8,43.7,40.8,43.1,41.7,39.5,97,93,89,30.17,30.13,3,1,7,0.00
2013-1-31,43.9,37.4,31.8,22.0,17.9,15.3,57,45,37,29.97,29.77,7,3,27,0.70
2013-2-1,33.3,27.8,17.8,26.4,8.9,0.9,82,46,30,30.46,29.85,10,4,26,0.00
2013-2-2,34.1,24.3,15.7,26.3,15.6,8.2,94,71,41,30.46,30.07,5,2,17,0.00
2013-2-3,41.0,31.5,24.0,29.4,24.1,15.2,95,76,47,30.06,29.88,7,2,17,0.01
2013-2-4,36.7,31.4,21.8,22.7,17.7,12.1,81,58,44,30.18,29.96,6,2,12,0.00
2013-2-5,57.7,41.1,30.1,34.8,29.3,21.8,85,64,42,29.97,29.86,5,2,15,0.00
2013-2-6,53.7,40.1,28.2,33.2,28.3,26.0,94,66,35,30.40,29.97,5,1,13,0.00
2013-2-7,40.2,35.2,28.5,29.4,26.8,24.8,87,72,56,30.48,30.22,2,1,4,0.00
2013-2-8,49.6,39.0,32.8,41.7,32.9,23.8,97,80,54,30.21,29.83,8,2,13,0.30
2013-2-9,47.7,37.9,26.5,24.0,15.9,9.3,74,42,22,30.43,30.03,12,4,18,0.00
2013-2-10,44.6,33.1,18.9,33.4,19.9,15.8,90,61,36,30.56,30.29,5,1,10,0.02
2013-2-11,58.5,47.1,35.2,51.5,40.9,21.0,98,83,26,30.29,29.81,6,2,10,0.06
2013-2-12,60.3,50.9,42.8,32.1,26.2,21.7,65,39,24,30.03,29.87,8,3,12,0.00
2013-2-13,43.4,39.0,33.0,36.5,32.0,28.8,97,77,60,29.97,29.69,4,1,4,0.05
2013-2-14,52.2,38.3,27.1,35.3,27.9,22.8,97,71,32,30.09,29.85,6,1,9,0.01
2013-2-15,59.7,43.1,26.5,39.3,31.5,24.5,93,68,35,30.11,29.92,7,2,11,0.00
2013-2-16,42.5,36.8,30.4,36.6,27.9,14.8,95,72,47,30.05,29.89,8,2,10,0.01
2013-2-17,30.4,27.3,22.8,16.7,7.4,1.9,61,43,30,30.29,29.94,10,5,14,0.00
2013-2-18,34.0,20.3,15.2,13.8,10.2,6.3,84,66,33,30.46,30.30,3,1,5,0.00
2013-3-7,45.4,41.2,35.5,30.0,27.4,25.5,76,58,47,30.26,30.08,9,4,13,0.02
2013-3-8,46.0,40.3,33.7,29.3,26.9,23.4,77,59,50,30.34,30.24,12,5,13,0.00
2013-3-9,60.7,42.7,26.6,31.4,25.6,20.4,93,58,22,30.41,30.30,5,1,8,0.00
2013-3-10,64.5,46.7,27.4,32.3,27.3,25.1,93,54,24,30.38,30.23,5,2,9,0.00
2013-3-11,60.9,50.4,38.2,51.5,39.8,26.3,81,67,43,30.27,29.93,5,2,8,0.01
2013-3-12,64.1,56.1,40.6,58.0,47.4,31.6,98,75,46,30.00,29.73,7,3,12,1.25
2013-3-13,49.5,40.5,30.6,33.0,25.0,16.5,89,57,32,30.16,29.96,10,3,14,0.00
2013-3-14,49.5,39.2,30.1,20.3,16.2,12.2,57,40,23,30.23,30.11,9,4,14,0.00
2013-3-15,59.8,45.6,28.1,35.3,25.9,15.3,74,47,34,30.19,29.84,6,2,10,0.00
2013-3-16,67.1,50.5,40.4,56.3,43.7,33.8,96,79,53,29.92,29.65,6,1,7,0.27
2013-3-17,43.2,37.4,32.8,39.0,35.0,31.7,96,91,85,30.34,29.93,3,1,3,0.05
2013-3-18,33.2,32.7,32.4,32.3,31.8,31.4,97,96,96,30.36,30.10,2,1,3,0.26
2013-3-19,60.9,54.6,45.9,31.6,15.1,4.7,37,21,14,30.02,29.79,9,5,14,0.20
2013-3-20,54.0,43.0,28.8,23.8,14.2,5.9,69,33,19,30.08,29.81,6,2,12,0.00
2013-3-21,41.0,34.6,28.3,28.8,15.7,8.3,78,47,31,30.00,29.81,9,4,14,0.00
2013-3-22,51.1,36.3,21.7,23.5,16.1,10.6,74,46,24,30.07,29.93,5,2,10,0.00
2013-3-23,57.5,40.2,25.0,26.1,21.3,16.2,85,52,22,30.12,29.94,5,1,6,0.00
2013-3-24,40.3,35.9,32.4,31.6,26.3,22.1,96,70,49,30.06,29.69,3,1,5,0.00
2013-3-25,40.4,34.5,31.2,36.5,32.9,30.0,97,94,81,29.77,29.59,2,0,6,0.24
2013-3-26,46.8,38.2,28.3,33.8,28.9,24.9,97,72,45,30.10,29.78,7,2,12,0.07
2013-3-27,47.9,41.0,31.9,29.3,26.1,22.7,82,57,38,30.23,30.10,10,4,22,0.00
2013-3-28,49.5,41.5,31.4,28.7,26.1,24.3,78,56,40,30.31,30.19,10,4,23,0.00
2013-3-29,57.0,43.4,30.8,33.7,28.3,23.9,90,60,28,30.35,30.19,6,1,15,0.00
2013-3-30,62.8,46.7,28.0,32.7,28.6,25.2,90,55,26,30.29,30.12,6,1,11,0.00
2013-3-31,54.4,46.4,41.2,50.0,40.6,29.8,96,81,52,30.14,29.80,3,1,9,0.03
2013-4-1,63.2,50.6,38.2,45.5,37.6,25.3,97,65,37,30.05,29.82,8,3,19,0.01
2013-4-2,52.7,42.7,29.3,26.1,16.5,7.3,77,38,16,30.23,30.05,7,2,22,0.00
2013-4-3,55.1,41.3,25.2,23.4,15.9,8.0,80,41,15,30.42,30.23,7,3,18,0.00
2013-4-4,47.3,36.8,27.3,34.4,21.8,13.1,95,59,26,30.49,30.11,6,1,15,0.22
2013-4-5,65.9,49.1,35.6,43.8,33.7,27.4,97,64,24,30.11,29.89,7,2,13,0.21
2013-4-6,59.3,47.9,36.8,34.7,23.7,12.9,75,42,20,30.36,30.08,4,2,11,0.00
2013-4-7,72.7,56.2,39.2,44.6,37.2,26.4,73,50,34,30.31,30.03,7,3,20,0.00
2013-4-8,81.1,66.4,47.9,51.7,46.4,42.1,83,52,29,30.13,29.96,7,2,16,0.00
2013-4-9,86.2,73.5,57.3,56.2,53.2,50.7,81,51,32,30.12,29.97,7,2,16,0.00
2013-4-10,91.7,77.6,61.4,58.6,55.4,53.0,78,49,30,30.02,29.82,6,2,18,0.00
2013-4-11,85.1,73.1,59.5,60.0,57.0,54.8,85,59,37,29.89,29.74,7,2,20,0.00
2013-4-12,80.7,70.8,61.6,65.6,57.1,39.3,97,66,34,29.75,29.56,7,3,23,0.97
2013-4-13,73.8,61.0,43.9,43.3,36.5,25.9,85,44,22,29.98,29.75,8,2,18,0.00
2013-4-14,75.2,61.1,44.1,44.8,38.8,33.5,82,47,28,30.13,29.99,4,1,11,0.00
2013-4-15,62.0,56.9,52.1,56.1,52.4,44.3,97,86,54,30.31,30.11,3,1,6,0.20
2013-4-16,65.1,56.5,54.6,59.1,54.6,53.1,96,93,81,30.35,30.29,5,1,7,0.01
2013-4-19,74.9,64.5,56.8,67.5,60.9,43.2,96,88,59,29.77,29.64,7,3,24,0.66
2013-4-20,63.7,54.2,44.1,43.5,30.6,24.6,73,42,24,30.35,29.77,7,3,14,0.00
2013-4-21,55.6,46.4,35.6,36.7,31.2,26.7,85,57,39,30.63,30.36,4,1,11,0.00
2013-4-22,59.9,46.7,32.2,40.6,34.7,30.5,95,66,42,30.60,30.40,4,1,11,0.00
2013-4-23,65.4,57.1,48.1,49.0,45.1,39.6,89,65,51,30.42,30.14,4,1,9,0.00
2013-4-24,77.8,60.5,42.2,59.2,50.6,41.1,97,73,41,30.16,29.85,8,2,23,0.04
2013-4-25,68.1,56.8,46.3,51.7,36.1,26.1,77,48,22,30.33,30.02,6,2,16,0.00
2013-4-26,68.1,53.9,36.8,44.5,37.8,34.3,95,59,30,30.50,30.34,4,1,11,0.00
2013-4-27,72.7,59.6,44.9,48.2,43.9,41.2,90,59,34,30.46,30.28,4,1,10,0.00
2013-4-28,59.6,54.8,51.0,54.0,48.7,43.6,94,80,57,30.31,30.16,3,1,8,0.07
2013-4-29,63.9,56.9,52.2,58.2,54.5,50.0,98,92,79,30.19,30.03,3,1,7,0.23
2013-4-30,64.7,58.5,54.7,58.4,55.0,52.9,97,89,75,30.31,30.11,2,1,9,0.01
2013-5-1,72.7,61.5,53.6,53.1,46.7,38.2,95,63,30,30.43,30.30,4,1,11,0.01
2013-5-2,70.7,58.0,47.3,49.3,46.0,42.7,90,66,40,30.46,30.33,4,1,11,0.00
2013-5-3,69.7,55.2,43.0,52.7,46.0,40.6,98,74,41,30.41,30.27,4,1,12,0.00
2013-5-4,65.5,53.8,43.6,52.0,45.4,40.1,90,74,54,30.36,30.19,4,1,10,0.00
2013-5-5,64.9,52.8,41.7,48.4,43.7,38.3,90,72,51,30.28,30.14,3,1,12,0.00
2013-5-6,59.5,54.6,50.7,58.9,52.4,48.0,98,93,75,30.19,30.01,3,1,8,0.38
2013-5-7,66.2,58.7,54.5,62.4,57.7,53.9,98,97,86,30.01,29.89,4,1,10,1.52
2013-5-8,63.2,56.8,51.4,59.0,55.2,50.6,99,94,80,30.04,29.98,3,0,9,0.09
2013-5-9,79.8,61.0,46.8,63.2,54.9,46.3,100,83,41,30.05,29.98,3,1,8,0.02
2013-5-10,84.4,68.5,51.7,62.9,57.9,50.9,99,74,39,30.06,29.89,7,2,17,0.18
2013-5-11,80.1,69.1,61.4,67.0,61.2,56.7,98,78,47,29.92,29.73,5,1,15,0.00
2013-5-12,68.0,60.5,46.6,57.9,40.7,29.2,85,51,26,30.08,29.77,7,3,18,0.00
2013-5-13,59.7,48.1,37.2,42.0,34.2,27.8,95,63,31,30.23,30.08,6,1,15,0.00
2013-5-14,69.8,53.8,33.0,46.1,37.3,31.5,97,59,30,30.29,30.05,5,1,11,0.00
2013-5-15,89.0,68.7,48.8,65.8,55.6,43.9,87,65,43,30.06,29.74,7,2,18,0.00
2013-5-16,86.6,72.4,65.3,68.3,61.0,53.3,98,71,41,29.98,29.82,5,1,10,0.38
2013-5-17,82.6,71.0,59.2,65.8,60.5,52.2,99,74,37,30.14,29.96,4,1,10,0.11
2013-5-18,64.5,62.5,61.3,63.3,61.5,60.4,98,97,94,30.23,30.13,1,0,4,0.10
2013-5-19,68.3,63.3,60.0,65.8,62.4,59.7,99,97,91,30.22,30.10,3,0,10,0.05
2013-5-20,82.4,70.8,64.4,69.9,67.0,64.0,100,89,62,30.14,29.99,4,1,9,0.01
2013-5-21,70.0,67.0,66.0,66.9,65.9,65.0,98,96,90,30.03,29.98,3,1,5,0.00
2013-5-30,84.4,84.3,84.2,69.9,69.7,69.5,62,62,61,30.21,30.20,4,4,6,0.00
2013-6-12,92.1,84.3,71.4,76.1,71.7,67.2,96,68,50,29.92,29.81,5,1,14,0.00
2013-6-13,85.8,73.8,68.6,74.1,68.4,57.2,99,84,57,29.83,29.55,6,1,15,0.11
2013-6-14,78.7,70.3,60.7,60.6,55.4,52.7,90,60,42,30.03,29.69,7,3,17,0.00
2013-6-15,83.5,70.0,54.6,64.0,58.3,53.8,98,71,39,30.13,30.00,3,1,8,0.00
2013-6-16,85.7,72.7,59.6,71.3,65.3,58.7,98,80,53,30.05,29.93,4,1,10,0.09
2013-6-17,86.6,72.3,66.0,73.8,68.1,63.1,99,88,56,30.00,29.91,5,1,10,0.37
2013-6-18,72.3,68.3,64.6,71.1,67.4,64.0,99,97,93,29.95,29.82,3,0,10,0.34
2013-6-19,77.1,68.7,60.8,67.0,64.7,60.5,100,88,66,30.17,29.92,3,0,8,0.01
2013-6-20,79.4,70.7,64.9,65.8,63.5,57.4,98,79,58,30.30,30.17,3,1,10,0.00
2013-6-21,83.7,71.2,57.7,65.7,59.5,52.9,96,69,48,30.32,30.24,3,1,9,0.00
2013-6-22,87.1,72.5,58.7,70.7,65.5,57.9,99,81,52,30.29,30.15,5,1,13,0.00
2013-6-23,86.0,76.4,68.5,73.7,70.2,67.0,98,83,58,30.22,30.10,3,1,8,0.02
2013-6-24,89.6,77.3,69.0,75.3,71.2,68.0,98,83,58,30.16,30.07,7,1,15,0.01
2013-6-25,92.6,79.7,67.5,75.7,71.1,66.9,99,78,48,30.08,29.93,3,1,8,0.00
2013-6-26,91.3,75.3,68.8,75.0,70.6,67.4,98,87,54,29.94,29.86,5,1,7,0.20
2013-6-27,83.5,73.9,67.6,73.7,69.8,67.3,99,88,67,29.88,29.67,4,1,9,0.00
2013-6-28,91.1,79.8,68.1,74.5,68.6,62.0,97,71,42,29.69,29.48,4,1,10,0.00
2013-6-29,87.6,76.0,62.5,69.6,64.9,60.1,97,71,43,29.71,29.55,4,1,10,0.00
2013-6-30,84.6,73.7,66.0,75.0,69.6,64.5,97,87,70,29.88,29.71,5,1,11,0.04
2013-7-1,82.8,74.8,70.0,73.9,71.2,69.1,98,89,70,29.99,29.86,4,1,10,0.09
2013-7-2,76.9,73.8,70.6,73.1,71.7,69.9,98,93,85,30.20,29.99,4,2,14,0.15
2013-7-3,84.0,74.7,70.8,76.3,72.7,70.2,99,94,74,30.26,30.17,3,1,8,1.28
2013-7-4,87.6,77.8,71.8,77.2,73.5,71.5,99,88,60,30.28,30.18,5,2,12,0.08
2013-7-5,87.7,78.2,70.9,75.5,73.0,70.3,98,85,64,30.26,30.16,5,2,15,0.01
2013-7-6,87.7,78.5,71.0,76.4,72.6,70.1,99,84,56,30.22,30.11,4,1,15,0.00
2013-7-7,88.3,77.5,71.2,76.9,72.0,67.6,97,85,62,30.16,30.03,6,2,14,0.02
2013-7-8,86.3,74.7,68.5,73.5,70.4,67.5,99,88,56,30.15,30.09,4,1,14,0.79
2013-7-9,85.8,77.3,69.5,76.4,72.7,69.2,99,87,67,30.14,30.03,2,0,7,0.00
2013-7-10,88.4,76.5,72.2,78.5,74.0,71.1,98,93,67,30.05,29.92,4,1,10,0.55
2013-7-11,84.7,75.6,71.2,75.7,72.4,70.9,99,91,68,29.95,29.88,3,1,7,0.44
2013-7-12,71.9,68.9,65.8,71.3,67.4,65.0,98,95,87,30.09,29.93,3,1,9,0.57
2013-7-13,82.4,73.9,65.2,75.9,70.4,64.6,99,89,70,30.28,30.08,3,0,7,0.07
2013-7-14,88.0,78.4,71.7,74.9,72.5,70.1,99,84,57,30.37,30.27,3,1,8,0.01
2013-7-15,92.7,79.8,68.7,76.5,72.7,68.1,100,81,51,30.34,30.23,2,0,7,0.00
2013-7-16,93.7,82.3,70.6,80.2,75.4,70.0,99,81,57,30.27,30.18,2,0,6,0.00
2013-7-17,91.4,81.8,73.1,80.3,76.5,72.5,99,85,63,30.24,30.12,4,0,10,0.00
2013-7-18,94.2,82.8,72.5,80.5,76.4,72.0,99,83,57,30.16,30.03,2,0,6,0.00
2013-7-19,93.2,82.1,73.4,79.8,75.8,72.8,99,83,60,30.06,29.91,4,1,10,0.00
2013-7-20,93.0,80.1,73.7,78.0,73.6,70.0,98,82,54,29.95,29.86,4,1,13,0.00
2013-7-21,89.4,76.9,70.0,78.8,72.2,68.7,99,86,58,29.97,29.90,7,1,11,0.04
2013-7-22,86.2,77.4,71.5,76.1,73.3,70.9,99,88,70,29.97,29.78,0,0,2,0.00
2013-7-23,90.1,79.4,71.7,74.9,71.7,69.3,98,79,51,29.79,29.67,0,0,0,0.00
2013-7-24,85.2,75.2,68.7,73.8,70.2,66.6,97,86,65,29.93,29.70,3,0,8,0.03
2013-7-25,79.3,71.5,62.5,66.8,61.4,56.3,94,72,54,30.07,29.92,3,1,11,0.00
2013-7-26,83.0,70.3,56.9,67.1,62.0,56.1,99,78,49,30.15,30.04,3,1,10,0.01
2013-7-27,77.5,71.5,64.7,71.9,68.3,63.8,98,90,77,30.07,29.94,3,1,7,0.00
2013-7-28,84.3,73.6,68.6,72.6,69.3,67.0,98,87,57,30.01,29.91,3,1,10,0.20
2013-7-29,75.7,67.8,60.5,70.4,63.5,53.5,99,88,48,30.14,30.00,3,0,9,0.01
2013-8-19,74.3,71.8,69.4,70.2,68.9,67.5,97,91,85,30.16,30.10,3,1,5,0.03
2013-8-20,84.7,73.9,65.7,73.5,69.6,65.4,100,87,64,30.20,30.12,4,1,8,0.00
2013-8-21,85.6,74.2,67.2,75.0,70.6,66.6,100,89,66,30.23,30.11,5,1,11,0.05
2013-8-22,87.7,74.4,65.4,73.7,68.9,64.8,99,85,53,30.12,29.99,5,0,7,0.30
2013-8-23,72.1,67.0,62.2,71.2,66.3,61.6,100,98,95,30.16,29.97,4,0,10,0.75
2013-8-24,82.0,67.5,55.1,65.6,60.5,54.8,100,82,46,30.36,30.16,2,0,8,0.01
2013-8-25,81.1,67.8,56.3,67.8,61.5,55.7,99,82,51,30.45,30.31,3,1,8,0.00
2013-8-26,85.5,71.0,58.1,68.1,63.2,57.5,99,79,47,30.34,30.06,3,1,7,0.00
2013-8-27,89.0,74.0,63.6,76.3,69.3,62.9,99,87,60,30.07,29.93,4,0,12,0.01
2013-8-28,74.5,72.1,69.0,73.6,71.5,68.4,99,98,95,29.99,29.83,4,0,7,0.30
2013-8-29,80.5,73.7,71.8,73.0,71.9,71.1,99,95,74,30.00,29.84,3,0,7,0.00
2013-9-11,89.2,81.4,73.7,76.3,74.4,72.2,95,80,65,30.08,30.03,2,0,6,0.00
2013-9-12,89.9,76.7,68.7,76.5,71.2,67.6,99,85,58,30.03,29.76,4,0,11,0.03
2013-9-13,76.9,70.0,59.5,67.0,58.3,51.0,96,69,42,29.98,29.74,6,2,18,0.00
2013-9-14,68.0,57.5,47.7,54.0,49.0,44.3,97,76,47,30.21,29.98,5,1,11,0.00
2013-9-15,75.8,60.2,44.7,61.6,53.5,43.9,98,81,54,30.29,30.12,4,1,12,0.00
2013-9-16,69.4,61.6,53.9,65.0,58.5,52.8,99,90,67,30.27,30.10,5,0,12,0.01
2013-9-17,69.4,57.1,47.2,54.6,50.8,44.5,98,81,45,30.46,30.27,3,1,9,0.01
2013-9-18,71.0,54.8,40.4,55.8,48.6,39.6,98,82,49,30.41,30.23,3,0,6,0.00
2013-9-19,75.7,61.8,50.5,63.2,56.7,49.7,98,85,63,30.25,30.11,3,1,7,0.00
2013-9-20,75.3,65.0,55.1,67.4,61.5,54.5,99,89,72,30.13,29.98,3,0,7,0.00
2013-9-21,67.8,65.7,62.5,67.2,65.0,61.9,99,98,96,29.98,29.71,3,1,8,0.35
2013-9-22,71.8,62.8,53.4,62.9,56.7,52.7,100,83,52,29.98,29.77,4,1,8,0.02
2013-9-23,68.1,56.1,45.6,54.4,49.6,44.8,98,81,52,30.15,29.99,4,0,12,0.00
2013-9-24,73.3,58.8,48.4,58.4,53.3,47.6,99,84,57,30.16,29.98,3,1,7,0.00
2013-9-25,71.6,59.9,50.2,59.6,54.8,49.7,100,85,49,30.03,29.92,2,0,7,0.00
2013-9-26,58.9,58.4,57.4,57.9,57.4,56.6,97,97,95,29.97,29.95,1,0,2,0.00
2013-10-3,82.3,67.6,56.8,68.8,62.5,56.1,99,85,59,30.16,30.08,2,0,6,0.00
2013-10-4,87.9,70.3,57.6,69.0,63.3,57.0,99,82,46,30.14,30.05,3,0,8,0.01
2013-10-5,87.3,72.1,59.9,69.5,65.0,59.3,99,81,50,30.14,30.03,3,0,7,0.00
2013-10-6,85.2,72.6,60.5,69.6,64.8,59.9,99,79,49,30.05,29.93,5,2,15,0.00
2013-10-7,71.9,67.9,56.2,70.0,62.8,47.5,99,84,61,30.09,29.80,5,2,12,0.91
2013-10-8,66.4,55.8,46.0,53.0,48.6,45.2,98,79,49,30.32,30.10,3,0,9,0.00
2013-10-9,59.6,53.6,48.9,53.2,50.8,48.1,97,91,77,30.36,30.25,3,1,10,0.25
2013-10-10,59.1,55.7,52.2,58.5,54.8,50.3,99,97,90,30.25,30.03,3,1,11,1.06
2013-10-11,64.6,59.3,56.2,61.2,58.1,55.6,99,96,87,30.04,29.98,4,1,7,0.08
2013-10-12,63.8,61.9,59.5,62.6,61.1,58.9,99,97,92,30.18,30.01,3,1,8,0.08
2013-10-13,61.3,59.5,58.1,60.0,58.8,57.5,99,97,94,30.34,30.17,3,1,11,0.14
2013-10-14,68.4,59.6,53.0,59.4,56.8,52.2,99,91,71,30.37,30.25,3,0,7,0.00
2013-10-15,71.0,57.7,47.3,57.9,53.2,47.0,100,87,52,30.28,30.13,3,0,8,0.01
2013-10-16,62.4,58.5,57.8,59.7,56.9,55.8,96,94,91,30.14,30.07,1,0,3,0.00
2013-11-19,49.4,43.5,34.4,30.4,27.3,25.5,81,54,40,30.42,30.02,7,2,16,0.00
2013-11-20,47.5,37.0,30.0,30.8,26.6,24.3,91,68,40,30.60,30.42,4,1,7,0.00
2013-11-21,48.5,41.1,31.1,40.7,35.3,28.1,90,80,69,30.62,30.45,2,0,4,0.00
2013-11-22,65.7,56.5,44.6,56.6,49.6,40.4,86,78,67,30.45,30.05,5,1,10,0.00
2013-11-23,61.7,49.4,34.2,53.8,29.7,15.1,78,50,23,30.25,30.06,9,4,21,0.00
2013-11-24,34.2,28.3,21.8,20.5,7.0,2.3,63,41,29,30.61,30.26,9,4,18,0.00
2013-11-25,37.3,28.0,16.8,16.4,12.2,8.3,84,55,30,30.65,30.42,5,2,11,0.00
2013-11-26,37.2,34.5,33.6,36.7,28.1,13.3,98,80,40,30.42,29.66,3,1,9,2.01
2013-11-27,44.1,38.5,29.6,41.4,30.6,14.3,99,75,50,30.16,29.57,10,4,20,0.40
2013-11-28,41.4,30.3,20.2,22.9,18.1,12.8,89,62,38,30.53,30.17,6,1,10,0.00
2013-11-29,45.6,31.4,19.3,25.2,22.1,17.4,93,71,43,30.78,30.52,3,0,7,0.00
2013-11-30,39.7,28.5,18.8,26.3,21.9,16.9,94,78,52,30.79,30.45,3,0,6,0.00
2013-12-1,54.0,35.3,20.2,34.6,26.7,18.5,94,74,39,30.45,30.08,3,0,7,0.00
2013-12-2,47.4,41.9,38.2,36.3,34.9,33.0,88,77,62,30.08,29.92,2,0,4,0.00
2013-12-3,57.4,43.3,33.4,41.6,37.1,31.9,96,80,54,30.05,29.92,4,0,7,0.00
2013-12-4,60.4,49.8,38.3,51.8,45.6,36.2,93,86,72,30.11,30.03,4,1,9,0.00
2013-12-5,65.3,59.4,53.2,62.4,57.2,51.8,98,93,86,30.11,29.97,6,2,13,0.00
2013-12-6,66.3,53.6,41.7,64.7,52.4,40.9,98,96,88,30.18,29.92,8,2,12,0.10
2013-12-7,44.4,38.6,29.4,40.8,34.2,27.4,97,85,64,30.58,30.15,5,1,11,0.01
2013-12-8,32.3,30.0,28.1,31.5,26.5,22.2,97,87,72,30.63,30.34,3,1,7,0.00
2013-12-9,38.7,34.8,32.2,37.9,34.3,31.4,98,98,96,30.37,30.09,2,0,6,0.36
2013-12-10,39.7,34.1,28.4,37.6,30.8,20.0,99,89,58,30.30,30.05,4,1,9,0.06
2013-12-11,44.9,33.6,23.5,25.2,21.4,16.7,89,63,35,30.47,30.30,4,1,10,0.03
2013-12-12,38.4,32.8,27.5,22.2,12.9,2.4,71,44,24,30.48,30.31,5,1,12,0.52
2013-12-13,47.8,36.1,24.5,25.5,16.4,10.5,70,46,28,30.36,30.28,6,1,16,0.26
2013-12-14,35.8,34.0,31.4,34.3,30.9,24.6,98,89,68,30.36,29.81,3,0,5,0.42
2013-12-15,49.9,40.2,32.9,34.8,28.8,25.5,98,66,45,30.03,29.73,5,2,12,0.04
2013-12-16,45.3,37.1,31.2,30.5,28.4,26.9,86,71,52,30.21,30.01,3,1,9,0.00
2013-12-17,52.1,36.3,25.7,38.4,30.7,24.2,95,81,54,30.19,29.95,3,1,13,0.00
2013-12-18,45.2,36.0,28.6,32.2,22.8,19.3,93,61,36,30.28,30.05,4,1,17,0.00
2013-12-19,64.1,45.6,28.3,30.7,26.6,21.6,79,51,26,30.26,30.15,5,2,12,0.00
2013-12-20,62.5,50.5,39.1,41.3,34.1,28.6,68,54,39,30.19,30.06,6,1,15,0.00
2013-12-21,69.9,59.6,48.4,59.8,51.3,40.8,85,74,61,30.09,29.96,7,3,18,0.00
2013-12-22,69.9,64.7,60.1,64.9,61.1,57.4,97,88,68,30.04,29.87,9,3,22,0.22
2013-12-23,62.1,55.7,39.4,61.5,50.7,28.5,99,84,57,30.25,29.96,8,2,17,0.53
2013-12-24,40.8,33.5,25.4,30.8,21.1,6.4,95,63,38,30.54,30.24,7,2,17,0.00
2013-12-25,34.6,25.3,16.6,19.1,13.6,8.5,87,63,39,30.65,30.45,4,1,10,0.00
2013-12-26,50.0,32.5,20.3,26.8,20.4,16.3,87,64,32,30.44,30.28,6,1,15,0.00
2013-12-27,52.4,35.1,23.1,28.1,21.7,17.8,91,63,28,30.51,30.38,6,1,12,0.00
2013-12-28,60.0,40.2,22.9,30.0,25.2,20.7,92,60,27,30.43,30.18,5,1,9,0.00
2013-12-29,53.4,45.2,40.5,48.8,40.8,29.0,99,86,54,30.18,29.63,6,1,12,1.59
2013-12-30,48.4,41.7,34.1,39.4,33.8,28.2,90,75,53,30.22,29.89,5,1,10,0.00
2013-12-31,47.5,36.2,27.0,31.2,24.0,17.3,95,64,34,30.40,30.20,6,1,18,0.00
2014-1-1,50.7,35.5,24.3,27.8,24.0,20.9,88,65,39,30.48,30.17,5,1,12,0.00
2014-1-2,38.3,32.6,28.1,33.0,28.7,25.0,97,86,67,30.16,29.67,3,0,5,0.08